sensor_id;sensor_type;location;lat;lon;timestamp;temperature;humidity
40153;DHT22;26371;56.992;23.912;2023-04-15T00:00:56;10.40;98.30
40153;DHT22;26371;56.992;23.912;2023-04-15T00:03:26;10.20;93.20
40153;DHT22;26371;56.992;23.912;2023-04-15T00:05:55;10.20;93.30
40153;DHT22;26371;56.992;23.912;2023-04-15T00:08:23;10.20;93.60
40153;DHT22;26371;56.992;23.912;2023-04-15T00:10:52;10.20;93.20
40153;DHT22;26371;56.992;23.912;2023-04-15T00:13:22;10.20;93.50
40153;DHT22;26371;56.992;23.912;2023-04-15T00:15:51;10.20;93.60
40153;DHT22;26371;56.992;23.912;2023-04-15T00:18:19;10.20;93.70
40153;DHT22;26371;56.992;23.912;2023-04-15T00:20:48;10.20;99.90
40153;DHT22;26371;56.992;23.912;2023-04-15T00:23:17;10.20;95.40
40153;DHT22;26371;56.992;23.912;2023-04-15T00:25:46;10.10;94.00
40153;DHT22;26371;56.992;23.912;2023-04-15T00:30:45;10.00;94.00
40153;DHT22;26371;56.992;23.912;2023-04-15T00:33:13;10.00;94.30
40153;DHT22;26371;56.992;23.912;2023-04-15T00:35:43;10.00;94.40
40153;DHT22;26371;56.992;23.912;2023-04-15T00:38:12;10.00;94.70
40153;DHT22;26371;56.992;23.912;2023-04-15T00:40:41;10.00;94.70
40153;DHT22;26371;56.992;23.912;2023-04-15T00:43:10;9.90;94.50
40153;DHT22;26371;56.992;23.912;2023-04-15T00:45:39;9.90;94.50
40153;DHT22;26371;56.992;23.912;2023-04-15T00:48:27;9.80;94.50
40153;DHT22;26371;56.992;23.912;2023-04-15T00:50:56;9.90;94.50
40153;DHT22;26371;56.992;23.912;2023-04-15T00:53:27;9.80;94.40
40153;DHT22;26371;56.992;23.912;2023-04-15T00:55:56;9.80;94.70
40153;DHT22;26371;56.992;23.912;2023-04-15T00:58:25;9.80;94.50
40153;DHT22;26371;56.992;23.912;2023-04-15T01:00:55;9.80;94.60
40153;DHT22;26371;56.992;23.912;2023-04-15T01:03:24;9.80;94.50
40153;DHT22;26371;56.992;23.912;2023-04-15T01:05:54;9.80;94.60
40153;DHT22;26371;56.992;23.912;2023-04-15T01:08:25;9.70;94.40
40153;DHT22;26371;56.992;23.912;2023-04-15T01:10:54;9.70;94.40
40153;DHT22;26371;56.992;23.912;2023-04-15T01:13:23;9.70;94.70
40153;DHT22;26371;56.992;23.912;2023-04-15T01:15:52;9.70;94.80
40153;DHT22;26371;56.992;23.912;2023-04-15T01:18:21;9.70;94.90
40153;DHT22;26371;56.992;23.912;2023-04-15T01:20:50;9.60;94.80
40153;DHT22;26371;56.992;23.912;2023-04-15T01:23:24;9.60;94.60
40153;DHT22;26371;56.992;23.912;2023-04-15T01:25:54;9.60;94.70
40153;DHT22;26371;56.992;23.912;2023-04-15T01:28:23;9.60;94.30
40153;DHT22;26371;56.992;23.912;2023-04-15T01:31:03;9.60;94.50
40153;DHT22;26371;56.992;23.912;2023-04-15T01:33:36;9.50;94.40
40153;DHT22;26371;56.992;23.912;2023-04-15T01:36:05;9.50;94.50
40153;DHT22;26371;56.992;23.912;2023-04-15T01:38:35;9.60;94.60
40153;DHT22;26371;56.992;23.912;2023-04-15T01:41:05;9.50;94.80
40153;DHT22;26371;56.992;23.912;2023-04-15T01:43:34;9.50;94.40
40153;DHT22;26371;56.992;23.912;2023-04-15T01:46:04;9.50;94.40
40153;DHT22;26371;56.992;23.912;2023-04-15T01:48:36;9.50;94.60
40153;DHT22;26371;56.992;23.912;2023-04-15T01:51:10;9.50;94.60
40153;DHT22;26371;56.992;23.912;2023-04-15T01:53:39;9.50;94.20
40153;DHT22;26371;56.992;23.912;2023-04-15T01:56:09;9.50;94.40
40153;DHT22;26371;56.992;23.912;2023-04-15T01:58:37;9.50;94.10
40153;DHT22;26371;56.992;23.912;2023-04-15T02:01:06;9.50;94.10
40153;DHT22;26371;56.992;23.912;2023-04-15T02:03:36;9.40;94.30
40153;DHT22;26371;56.992;23.912;2023-04-15T02:06:05;9.40;94.20
40153;DHT22;26371;56.992;23.912;2023-04-15T02:08:34;9.40;93.90
40153;DHT22;26371;56.992;23.912;2023-04-15T02:11:05;9.50;93.70
40153;DHT22;26371;56.992;23.912;2023-04-15T02:13:35;9.40;93.90
40153;DHT22;26371;56.992;23.912;2023-04-15T02:16:04;9.40;93.50
40153;DHT22;26371;56.992;23.912;2023-04-15T02:18:43;9.40;93.80
40153;DHT22;26371;56.992;23.912;2023-04-15T02:21:11;9.40;93.90
40153;DHT22;26371;56.992;23.912;2023-04-15T02:23:40;9.40;93.80
40153;DHT22;26371;56.992;23.912;2023-04-15T02:26:12;9.40;93.90
40153;DHT22;26371;56.992;23.912;2023-04-15T02:28:42;9.30;93.40
40153;DHT22;26371;56.992;23.912;2023-04-15T02:31:13;9.30;93.40
40153;DHT22;26371;56.992;23.912;2023-04-15T02:33:45;9.40;93.50
40153;DHT22;26371;56.992;23.912;2023-04-15T02:36:14;9.30;93.50
40153;DHT22;26371;56.992;23.912;2023-04-15T02:38:43;9.40;93.40
40153;DHT22;26371;56.992;23.912;2023-04-15T02:41:14;9.30;93.40
40153;DHT22;26371;56.992;23.912;2023-04-15T02:43:46;9.30;93.10
40153;DHT22;26371;56.992;23.912;2023-04-15T02:46:15;9.30;93.40
40153;DHT22;26371;56.992;23.912;2023-04-15T02:48:44;9.30;93.20
40153;DHT22;26371;56.992;23.912;2023-04-15T02:51:15;9.30;93.10
40153;DHT22;26371;56.992;23.912;2023-04-15T02:53:46;9.30;93.10
40153;DHT22;26371;56.992;23.912;2023-04-15T02:56:15;9.20;93.30
40153;DHT22;26371;56.992;23.912;2023-04-15T02:58:47;9.30;93.00
40153;DHT22;26371;56.992;23.912;2023-04-15T03:01:16;9.20;92.70
40153;DHT22;26371;56.992;23.912;2023-04-15T06:15:34;10.30;99.90
40153;DHT22;26371;56.992;23.912;2023-04-15T06:18:03;10.30;99.90
40153;DHT22;26371;56.992;23.912;2023-04-15T06:20:32;10.30;99.90
40153;DHT22;26371;56.992;23.912;2023-04-15T06:23:02;10.30;99.90
40153;DHT22;26371;56.992;23.912;2023-04-15T06:25:30;10.30;99.90
40153;DHT22;26371;56.992;23.912;2023-04-15T06:27:59;10.20;99.90
40153;DHT22;26371;56.992;23.912;2023-04-15T06:30:28;10.20;99.90
40153;DHT22;26371;56.992;23.912;2023-04-15T06:32:57;10.20;99.90
40153;DHT22;26371;56.992;23.912;2023-04-15T06:35:26;10.20;99.90
40153;DHT22;26371;56.992;23.912;2023-04-15T06:37:54;10.20;99.90
40153;DHT22;26371;56.992;23.912;2023-04-15T06:40:23;10.30;99.90
40153;DHT22;26371;56.992;23.912;2023-04-15T06:42:51;10.30;99.90
40153;DHT22;26371;56.992;23.912;2023-04-15T06:45:20;10.30;99.90
40153;DHT22;26371;56.992;23.912;2023-04-15T06:47:49;10.40;99.90
40153;DHT22;26371;56.992;23.912;2023-04-15T06:50:20;10.30;91.10
40153;DHT22;26371;56.992;23.912;2023-04-15T06:52:49;10.30;91.50
40153;DHT22;26371;56.992;23.912;2023-04-15T06:55:18;10.40;91.30
40153;DHT22;26371;56.992;23.912;2023-04-15T06:57:46;10.40;91.40
40153;DHT22;26371;56.992;23.912;2023-04-15T07:00:15;10.50;90.90
40153;DHT22;26371;56.992;23.912;2023-04-15T07:02:43;10.50;91.30
40153;DHT22;26371;56.992;23.912;2023-04-15T07:05:12;10.50;91.50
40153;DHT22;26371;56.992;23.912;2023-04-15T07:07:42;10.50;91.50
40153;DHT22;26371;56.992;23.912;2023-04-15T07:10:11;10.50;91.60
40153;DHT22;26371;56.992;23.912;2023-04-15T07:12:41;10.60;91.30
40153;DHT22;26371;56.992;23.912;2023-04-15T07:15:09;10.60;91.40
40153;DHT22;26371;56.992;23.912;2023-04-15T07:17:39;10.70;91.40
40153;DHT22;26371;56.992;23.912;2023-04-15T07:20:08;10.80;91.70
40153;DHT22;26371;56.992;23.912;2023-04-15T07:22:36;10.90;91.50
40153;DHT22;26371;56.992;23.912;2023-04-15T07:25:07;10.90;91.30
40153;DHT22;26371;56.992;23.912;2023-04-15T07:27:35;11.00;91.20
40153;DHT22;26371;56.992;23.912;2023-04-15T07:30:04;11.00;91.00
40153;DHT22;26371;56.992;23.912;2023-04-15T07:32:33;11.00;91.00
40153;DHT22;26371;56.992;23.912;2023-04-15T07:35:02;11.10;91.00
40153;DHT22;26371;56.992;23.912;2023-04-15T07:37:30;11.20;90.80
40153;DHT22;26371;56.992;23.912;2023-04-15T07:40:00;11.20;90.90
40153;DHT22;26371;56.992;23.912;2023-04-15T07:42:32;11.30;90.80
40153;DHT22;26371;56.992;23.912;2023-04-15T07:45:00;11.30;90.80
40153;DHT22;26371;56.992;23.912;2023-04-15T07:47:29;11.30;90.90
40153;DHT22;26371;56.992;23.912;2023-04-15T07:49:57;11.40;91.00
40153;DHT22;26371;56.992;23.912;2023-04-15T07:52:26;11.40;91.00
40153;DHT22;26371;56.992;23.912;2023-04-15T07:54:54;11.50;90.50
40153;DHT22;26371;56.992;23.912;2023-04-15T07:57:22;11.50;90.50
40153;DHT22;26371;56.992;23.912;2023-04-15T07:59:52;11.40;90.50
40153;DHT22;26371;56.992;23.912;2023-04-15T08:02:21;11.40;90.70
40153;DHT22;26371;56.992;23.912;2023-04-15T08:04:49;11.40;91.30
40153;DHT22;26371;56.992;23.912;2023-04-15T08:07:19;11.30;91.50
40153;DHT22;26371;56.992;23.912;2023-04-15T08:09:48;11.30;91.20
40153;DHT22;26371;56.992;23.912;2023-04-15T08:12:16;11.30;91.00
40153;DHT22;26371;56.992;23.912;2023-04-15T08:14:45;11.30;90.40
40153;DHT22;26371;56.992;23.912;2023-04-15T08:17:15;11.40;91.00
40153;DHT22;26371;56.992;23.912;2023-04-15T08:19:43;11.40;90.70
40153;DHT22;26371;56.992;23.912;2023-04-15T08:22:11;11.40;91.20
40153;DHT22;26371;56.992;23.912;2023-04-15T08:24:44;11.50;91.40
40153;DHT22;26371;56.992;23.912;2023-04-15T08:27:15;11.60;91.30
40153;DHT22;26371;56.992;23.912;2023-04-15T08:29:44;11.60;91.30
40153;DHT22;26371;56.992;23.912;2023-04-15T08:32:13;11.60;91.20
40153;DHT22;26371;56.992;23.912;2023-04-15T08:34:44;11.70;91.40
40153;DHT22;26371;56.992;23.912;2023-04-15T08:37:13;11.70;91.00
40153;DHT22;26371;56.992;23.912;2023-04-15T08:39:41;11.70;90.90
40153;DHT22;26371;56.992;23.912;2023-04-15T08:42:11;11.70;91.20
40153;DHT22;26371;56.992;23.912;2023-04-15T08:44:41;11.80;91.20
40153;DHT22;26371;56.992;23.912;2023-04-15T08:47:12;11.70;91.20
40153;DHT22;26371;56.992;23.912;2023-04-15T08:49:40;11.80;91.30
40153;DHT22;26371;56.992;23.912;2023-04-15T08:52:11;11.80;91.20
40153;DHT22;26371;56.992;23.912;2023-04-15T08:54:40;11.80;91.10
40153;DHT22;26371;56.992;23.912;2023-04-15T08:57:09;11.80;90.70
40153;DHT22;26371;56.992;23.912;2023-04-15T08:59:37;11.90;91.50
40153;DHT22;26371;56.992;23.912;2023-04-15T09:02:06;11.80;91.00
40153;DHT22;26371;56.992;23.912;2023-04-15T09:04:35;11.90;91.40
40153;DHT22;26371;56.992;23.912;2023-04-15T09:07:03;11.90;90.80
40153;DHT22;26371;56.992;23.912;2023-04-15T09:09:33;11.80;91.00
40153;DHT22;26371;56.992;23.912;2023-04-15T09:12:03;11.80;91.10
40153;DHT22;26371;56.992;23.912;2023-04-15T09:14:31;11.80;91.30
40153;DHT22;26371;56.992;23.912;2023-04-15T09:17:02;11.80;91.00
40153;DHT22;26371;56.992;23.912;2023-04-15T09:19:31;11.80;91.30
40153;DHT22;26371;56.992;23.912;2023-04-15T09:22:00;11.80;91.10
40153;DHT22;26371;56.992;23.912;2023-04-15T09:24:34;11.70;91.40
40153;DHT22;26371;56.992;23.912;2023-04-15T09:27:04;11.80;91.50
40153;DHT22;26371;56.992;23.912;2023-04-15T09:29:32;11.80;90.90
40153;DHT22;26371;56.992;23.912;2023-04-15T09:32:11;11.80;91.10
40153;DHT22;26371;56.992;23.912;2023-04-15T09:34:39;11.80;91.10
40153;DHT22;26371;56.992;23.912;2023-04-15T09:37:08;11.90;90.80
40153;DHT22;26371;56.992;23.912;2023-04-15T09:40:01;12.00;91.00
40153;DHT22;26371;56.992;23.912;2023-04-15T09:42:30;12.00;91.00
40153;DHT22;26371;56.992;23.912;2023-04-15T09:45:06;12.10;90.90
40153;DHT22;26371;56.992;23.912;2023-04-15T09:47:35;12.20;90.70
40153;DHT22;26371;56.992;23.912;2023-04-15T09:50:04;12.30;90.80
40153;DHT22;26371;56.992;23.912;2023-04-15T09:52:32;12.40;91.00
40153;DHT22;26371;56.992;23.912;2023-04-15T09:55:02;12.60;90.90
40153;DHT22;26371;56.992;23.912;2023-04-15T09:58:07;12.70;90.20
40153;DHT22;26371;56.992;23.912;2023-04-15T10:00:36;13.00;90.40
40153;DHT22;26371;56.992;23.912;2023-04-15T10:03:05;13.10;90.00
40153;DHT22;26371;56.992;23.912;2023-04-15T10:05:34;13.30;90.10
40153;DHT22;26371;56.992;23.912;2023-04-15T10:08:02;13.30;89.90
40153;DHT22;26371;56.992;23.912;2023-04-15T10:10:33;13.40;89.90
40153;DHT22;26371;56.992;23.912;2023-04-15T10:13:01;13.50;89.60
40153;DHT22;26371;56.992;23.912;2023-04-15T10:15:30;13.60;89.80
40153;DHT22;26371;56.992;23.912;2023-04-15T10:18:01;13.70;89.50
40153;DHT22;26371;56.992;23.912;2023-04-15T10:20:30;13.70;89.80
40153;DHT22;26371;56.992;23.912;2023-04-15T10:22:58;13.80;89.80
40153;DHT22;26371;56.992;23.912;2023-04-15T10:25:27;13.90;89.50
40153;DHT22;26371;56.992;23.912;2023-04-15T10:28:33;14.00;90.30
40153;DHT22;26371;56.992;23.912;2023-04-15T10:31:02;14.10;90.00
40153;DHT22;26371;56.992;23.912;2023-04-15T10:33:32;14.20;89.30
40153;DHT22;26371;56.992;23.912;2023-04-15T10:36:00;14.30;89.80
40153;DHT22;26371;56.992;23.912;2023-04-15T10:42:04;14.40;89.00
40153;DHT22;26371;56.992;23.912;2023-04-15T10:44:35;14.50;89.00
40153;DHT22;26371;56.992;23.912;2023-04-15T10:49:56;14.50;89.40
40153;DHT22;26371;56.992;23.912;2023-04-15T10:52:26;14.50;88.50
40153;DHT22;26371;56.992;23.912;2023-04-15T10:55:00;14.50;87.50
40153;DHT22;26371;56.992;23.912;2023-04-15T10:57:34;14.50;87.60
40153;DHT22;26371;56.992;23.912;2023-04-15T11:00:13;14.50;87.10
40153;DHT22;26371;56.992;23.912;2023-04-15T11:02:42;14.60;88.30
40153;DHT22;26371;56.992;23.912;2023-04-15T11:05:12;14.70;88.20
40153;DHT22;26371;56.992;23.912;2023-04-15T11:07:46;14.70;88.40
40153;DHT22;26371;56.992;23.912;2023-04-15T11:13:46;15.10;85.10
40153;DHT22;26371;56.992;23.912;2023-04-15T11:16:16;15.20;84.70
40153;DHT22;26371;56.992;23.912;2023-04-15T11:18:52;15.20;85.60
40153;DHT22;26371;56.992;23.912;2023-04-15T11:21:23;15.30;84.90
40153;DHT22;26371;56.992;23.912;2023-04-15T11:23:52;15.50;86.20
40153;DHT22;26371;56.992;23.912;2023-04-15T11:26:24;15.60;85.70
40153;DHT22;26371;56.992;23.912;2023-04-15T11:28:55;15.80;85.10
40153;DHT22;26371;56.992;23.912;2023-04-15T11:31:39;15.80;85.50
40153;DHT22;26371;56.992;23.912;2023-04-15T11:34:12;16.00;85.40
40153;DHT22;26371;56.992;23.912;2023-04-15T11:36:50;15.90;84.30
40153;DHT22;26371;56.992;23.912;2023-04-15T11:39:37;15.90;85.90
40153;DHT22;26371;56.992;23.912;2023-04-15T11:42:17;15.90;86.10
40153;DHT22;26371;56.992;23.912;2023-04-15T11:44:49;15.80;84.80
40153;DHT22;26371;56.992;23.912;2023-04-15T11:47:27;15.80;83.70
40153;DHT22;26371;56.992;23.912;2023-04-15T11:50:15;15.70;85.60
40153;DHT22;26371;56.992;23.912;2023-04-15T11:52:55;15.80;84.30
40153;DHT22;26371;56.992;23.912;2023-04-15T11:55:29;15.80;85.60
40153;DHT22;26371;56.992;23.912;2023-04-15T11:58:10;15.80;85.70
40153;DHT22;26371;56.992;23.912;2023-04-15T12:00:48;15.90;85.20
40153;DHT22;26371;56.992;23.912;2023-04-15T12:03:40;15.90;83.90
40153;DHT22;26371;56.992;23.912;2023-04-15T12:06:14;16.00;84.40
40153;DHT22;26371;56.992;23.912;2023-04-15T12:11:44;16.20;83.10
40153;DHT22;26371;56.992;23.912;2023-04-15T12:14:19;16.30;83.20
40153;DHT22;26371;56.992;23.912;2023-04-15T12:16:52;16.40;84.60
40153;DHT22;26371;56.992;23.912;2023-04-15T12:19:28;16.50;83.60
40153;DHT22;26371;56.992;23.912;2023-04-15T12:21:59;16.60;84.00
40153;DHT22;26371;56.992;23.912;2023-04-15T12:24:34;16.50;83.40
40153;DHT22;26371;56.992;23.912;2023-04-15T12:27:06;16.30;83.60
40153;DHT22;26371;56.992;23.912;2023-04-15T12:29:37;16.30;83.80
40153;DHT22;26371;56.992;23.912;2023-04-15T12:32:07;16.40;85.00
40153;DHT22;26371;56.992;23.912;2023-04-15T12:34:39;16.50;84.70
40153;DHT22;26371;56.992;23.912;2023-04-15T12:37:17;16.50;82.20
40153;DHT22;26371;56.992;23.912;2023-04-15T12:39:47;16.50;81.40
40153;DHT22;26371;56.992;23.912;2023-04-15T12:42:17;16.50;83.70
40153;DHT22;26371;56.992;23.912;2023-04-15T12:44:49;16.60;83.90
40153;DHT22;26371;56.992;23.912;2023-04-15T12:47:19;16.50;82.00
40153;DHT22;26371;56.992;23.912;2023-04-15T12:49:52;16.50;83.40
40153;DHT22;26371;56.992;23.912;2023-04-15T12:52:41;16.60;83.50
40153;DHT22;26371;56.992;23.912;2023-04-15T12:55:11;16.70;84.60
40153;DHT22;26371;56.992;23.912;2023-04-15T12:57:52;16.90;83.40
40153;DHT22;26371;56.992;23.912;2023-04-15T13:00:23;17.00;83.70
40153;DHT22;26371;56.992;23.912;2023-04-15T13:02:57;17.10;83.50
40153;DHT22;26371;56.992;23.912;2023-04-15T13:05:38;17.10;82.10
40153;DHT22;26371;56.992;23.912;2023-04-15T13:08:09;17.00;80.60
40153;DHT22;26371;56.992;23.912;2023-04-15T13:10:42;17.10;83.50
40153;DHT22;26371;56.992;23.912;2023-04-15T13:13:10;17.20;81.20
40153;DHT22;26371;56.992;23.912;2023-04-15T13:15:39;17.20;82.40
40153;DHT22;26371;56.992;23.912;2023-04-15T13:18:08;17.30;82.70
40153;DHT22;26371;56.992;23.912;2023-04-15T13:20:38;17.40;81.40
40153;DHT22;26371;56.992;23.912;2023-04-15T13:23:06;17.40;80.90
40153;DHT22;26371;56.992;23.912;2023-04-15T13:25:35;17.50;81.60
40153;DHT22;26371;56.992;23.912;2023-04-15T13:28:03;17.40;80.00
40153;DHT22;26371;56.992;23.912;2023-04-15T13:33:19;17.20;81.20
40153;DHT22;26371;56.992;23.912;2023-04-15T13:35:49;17.10;79.60
40153;DHT22;26371;56.992;23.912;2023-04-15T13:44:27;17.00;79.60
40153;DHT22;26371;56.992;23.912;2023-04-15T13:46:55;17.20;81.10
40153;DHT22;26371;56.992;23.912;2023-04-15T13:49:24;17.20;81.20
40153;DHT22;26371;56.992;23.912;2023-04-15T13:51:54;17.30;80.20
40153;DHT22;26371;56.992;23.912;2023-04-15T13:54:22;17.50;81.00
40153;DHT22;26371;56.992;23.912;2023-04-15T13:57:03;17.50;81.50
40153;DHT22;26371;56.992;23.912;2023-04-15T13:59:32;17.50;80.00
40153;DHT22;26371;56.992;23.912;2023-04-15T14:02:00;17.40;80.50
40153;DHT22;26371;56.992;23.912;2023-04-15T14:04:29;17.40;80.70
40153;DHT22;26371;56.992;23.912;2023-04-15T14:07:00;17.30;82.30
40153;DHT22;26371;56.992;23.912;2023-04-15T14:09:31;17.30;80.60
40153;DHT22;26371;56.992;23.912;2023-04-15T14:12:01;17.40;81.40
40153;DHT22;26371;56.992;23.912;2023-04-15T14:14:29;17.40;79.60
40153;DHT22;26371;56.992;23.912;2023-04-15T14:16:58;17.20;78.80
40153;DHT22;26371;56.992;23.912;2023-04-15T14:19:28;17.20;80.20
40153;DHT22;26371;56.992;23.912;2023-04-15T14:21:57;17.20;81.00
40153;DHT22;26371;56.992;23.912;2023-04-15T14:24:28;17.30;81.70
40153;DHT22;26371;56.992;23.912;2023-04-15T14:26:57;17.30;81.60
40153;DHT22;26371;56.992;23.912;2023-04-15T14:29:25;17.30;79.90
40153;DHT22;26371;56.992;23.912;2023-04-15T14:31:54;17.30;79.30
40153;DHT22;26371;56.992;23.912;2023-04-15T14:34:37;17.20;80.60
40153;DHT22;26371;56.992;23.912;2023-04-15T14:37:05;17.30;80.70
40153;DHT22;26371;56.992;23.912;2023-04-15T14:39:35;17.20;79.10
40153;DHT22;26371;56.992;23.912;2023-04-15T14:42:04;17.20;78.70
40153;DHT22;26371;56.992;23.912;2023-04-15T14:44:33;17.20;79.10
40153;DHT22;26371;56.992;23.912;2023-04-15T14:47:01;17.20;79.60
40153;DHT22;26371;56.992;23.912;2023-04-15T14:49:30;17.30;79.70
40153;DHT22;26371;56.992;23.912;2023-04-15T14:51:59;17.30;78.30
40153;DHT22;26371;56.992;23.912;2023-04-15T14:54:30;17.20;79.00
40153;DHT22;26371;56.992;23.912;2023-04-15T14:56:59;17.30;78.70
40153;DHT22;26371;56.992;23.912;2023-04-15T14:59:28;17.30;79.40
40153;DHT22;26371;56.992;23.912;2023-04-15T15:01:57;17.40;78.60
40153;DHT22;26371;56.992;23.912;2023-04-15T15:04:25;17.50;77.50
40153;DHT22;26371;56.992;23.912;2023-04-15T15:06:54;17.60;77.80
40153;DHT22;26371;56.992;23.912;2023-04-15T15:09:22;17.60;77.20
40153;DHT22;26371;56.992;23.912;2023-04-15T15:11:51;17.30;75.90
40153;DHT22;26371;56.992;23.912;2023-04-15T15:14:21;17.10;78.40
40153;DHT22;26371;56.992;23.912;2023-04-15T15:16:49;16.90;77.60
40153;DHT22;26371;56.992;23.912;2023-04-15T15:19:18;16.70;79.20
40153;DHT22;26371;56.992;23.912;2023-04-15T15:21:46;16.50;78.60
40153;DHT22;26371;56.992;23.912;2023-04-15T15:24:15;16.40;77.80
40153;DHT22;26371;56.992;23.912;2023-04-15T15:26:43;16.40;78.60
40153;DHT22;26371;56.992;23.912;2023-04-15T15:29:12;16.40;80.00
40153;DHT22;26371;56.992;23.912;2023-04-15T15:31:42;16.30;78.60
40153;DHT22;26371;56.992;23.912;2023-04-15T15:34:10;16.20;77.80
40153;DHT22;26371;56.992;23.912;2023-04-15T15:36:39;16.10;78.90
40153;DHT22;26371;56.992;23.912;2023-04-15T15:39:07;16.10;78.50
40153;DHT22;26371;56.992;23.912;2023-04-15T15:41:36;15.90;77.90
40153;DHT22;26371;56.992;23.912;2023-04-15T15:44:04;15.80;77.00
40153;DHT22;26371;56.992;23.912;2023-04-15T15:46:33;15.70;77.20
40153;DHT22;26371;56.992;23.912;2023-04-15T15:49:03;15.60;77.80
40153;DHT22;26371;56.992;23.912;2023-04-15T15:51:32;15.60;77.40
40153;DHT22;26371;56.992;23.912;2023-04-15T15:54:00;15.60;76.70
40153;DHT22;26371;56.992;23.912;2023-04-15T15:56:28;15.50;76.00
40153;DHT22;26371;56.992;23.912;2023-04-15T15:58:57;15.40;76.90
40153;DHT22;26371;56.992;23.912;2023-04-15T16:01:25;15.30;77.10
40153;DHT22;26371;56.992;23.912;2023-04-15T16:03:54;15.20;76.00
40153;DHT22;26371;56.992;23.912;2023-04-15T16:06:24;15.20;77.40
40153;DHT22;26371;56.992;23.912;2023-04-15T16:08:53;15.10;76.80
40153;DHT22;26371;56.992;23.912;2023-04-15T16:11:22;15.00;77.90
40153;DHT22;26371;56.992;23.912;2023-04-15T16:13:50;15.00;78.30
40153;DHT22;26371;56.992;23.912;2023-04-15T16:16:19;14.90;77.90
40153;DHT22;26371;56.992;23.912;2023-04-15T16:18:48;14.90;78.00
40153;DHT22;26371;56.992;23.912;2023-04-15T16:21:16;14.90;78.10
40153;DHT22;26371;56.992;23.912;2023-04-15T16:23:47;14.90;79.20
40153;DHT22;26371;56.992;23.912;2023-04-15T16:26:16;14.80;79.30
40153;DHT22;26371;56.992;23.912;2023-04-15T16:28:44;14.80;79.10
40153;DHT22;26371;56.992;23.912;2023-04-15T16:31:13;14.70;79.80
40153;DHT22;26371;56.992;23.912;2023-04-15T16:33:44;14.70;79.70
40153;DHT22;26371;56.992;23.912;2023-04-15T16:36:12;14.60;78.60
40153;DHT22;26371;56.992;23.912;2023-04-15T16:38:41;14.60;78.40
40153;DHT22;26371;56.992;23.912;2023-04-15T16:41:16;14.50;78.70
40153;DHT22;26371;56.992;23.912;2023-04-15T16:43:44;14.50;79.30
40153;DHT22;26371;56.992;23.912;2023-04-15T16:46:13;14.50;79.10
40153;DHT22;26371;56.992;23.912;2023-04-15T16:48:41;14.40;78.80
40153;DHT22;26371;56.992;23.912;2023-04-15T16:51:10;14.40;79.30
40153;DHT22;26371;56.992;23.912;2023-04-15T16:53:38;14.30;79.20
40153;DHT22;26371;56.992;23.912;2023-04-15T16:56:06;14.30;80.30
40153;DHT22;26371;56.992;23.912;2023-04-15T16:58:36;14.30;80.20
40153;DHT22;26371;56.992;23.912;2023-04-15T17:01:05;14.20;79.60
40153;DHT22;26371;56.992;23.912;2023-04-15T17:03:33;14.20;78.80
40153;DHT22;26371;56.992;23.912;2023-04-15T17:06:03;14.10;78.70
40153;DHT22;26371;56.992;23.912;2023-04-15T17:08:31;14.10;78.50
40153;DHT22;26371;56.992;23.912;2023-04-15T17:10:59;14.00;78.20
40153;DHT22;26371;56.992;23.912;2023-04-15T17:13:28;14.00;79.00
40153;DHT22;26371;56.992;23.912;2023-04-15T17:15:58;14.00;78.50
40153;DHT22;26371;56.992;23.912;2023-04-15T17:18:26;13.90;79.00
40153;DHT22;26371;56.992;23.912;2023-04-15T17:20:55;13.90;79.70
40153;DHT22;26371;56.992;23.912;2023-04-15T17:23:23;13.80;78.70
40153;DHT22;26371;56.992;23.912;2023-04-15T17:25:53;13.80;78.80
40153;DHT22;26371;56.992;23.912;2023-04-15T17:28:21;13.70;79.80
40153;DHT22;26371;56.992;23.912;2023-04-15T17:30:49;13.70;79.10
40153;DHT22;26371;56.992;23.912;2023-04-15T17:33:19;13.70;79.20
40153;DHT22;26371;56.992;23.912;2023-04-15T17:36:07;13.60;79.00
40153;DHT22;26371;56.992;23.912;2023-04-15T17:38:38;13.60;79.60
40153;DHT22;26371;56.992;23.912;2023-04-15T17:41:07;13.50;80.30
40153;DHT22;26371;56.992;23.912;2023-04-15T17:43:35;13.50;80.00
40153;DHT22;26371;56.992;23.912;2023-04-15T17:46:04;13.40;78.80
40153;DHT22;26371;56.992;23.912;2023-04-15T17:48:34;13.30;79.30
40153;DHT22;26371;56.992;23.912;2023-04-15T17:51:03;13.30;80.70
40153;DHT22;26371;56.992;23.912;2023-04-15T17:53:31;13.20;78.60
40153;DHT22;26371;56.992;23.912;2023-04-15T17:56:00;13.20;79.60
40153;DHT22;26371;56.992;23.912;2023-04-15T17:58:28;13.10;80.10
40153;DHT22;26371;56.992;23.912;2023-04-15T20:00:20;11.70;89.60
40153;DHT22;26371;56.992;23.912;2023-04-15T20:02:49;11.70;80.70
40153;DHT22;26371;56.992;23.912;2023-04-15T20:05:20;11.50;95.20
40153;DHT22;26371;56.992;23.912;2023-04-15T20:07:48;11.50;95.30
40153;DHT22;26371;56.992;23.912;2023-04-15T20:10:19;11.40;81.00
40153;DHT22;26371;56.992;23.912;2023-04-15T20:12:47;11.30;81.00
40153;DHT22;26371;56.992;23.912;2023-04-15T20:17:51;11.30;80.40
40153;DHT22;26371;56.992;23.912;2023-04-15T20:20:23;11.20;82.10
40153;DHT22;26371;56.992;23.912;2023-04-15T20:22:56;11.10;82.20
40153;DHT22;26371;56.992;23.912;2023-04-15T20:25:24;11.10;81.30
40153;DHT22;26371;56.992;23.912;2023-04-15T20:27:53;11.00;82.60
40153;DHT22;26371;56.992;23.912;2023-04-15T20:30:25;11.00;82.00
40153;DHT22;26371;56.992;23.912;2023-04-15T20:32:56;11.00;82.60
40153;DHT22;26371;56.992;23.912;2023-04-15T20:35:24;10.90;83.10
40153;DHT22;26371;56.992;23.912;2023-04-15T20:37:56;10.90;83.80
40153;DHT22;26371;56.992;23.912;2023-04-15T20:40:25;10.90;83.40
40153;DHT22;26371;56.992;23.912;2023-04-15T20:42:54;10.90;83.00
40153;DHT22;26371;56.992;23.912;2023-04-15T20:45:24;10.80;83.70
40153;DHT22;26371;56.992;23.912;2023-04-15T20:47:52;10.70;83.90
40153;DHT22;26371;56.992;23.912;2023-04-15T20:50:24;10.60;84.00
40153;DHT22;26371;56.992;23.912;2023-04-15T20:52:53;10.60;83.60
40153;DHT22;26371;56.992;23.912;2023-04-15T20:55:21;10.50;84.30
40153;DHT22;26371;56.992;23.912;2023-04-15T20:57:50;10.40;84.20
40153;DHT22;26371;56.992;23.912;2023-04-15T21:00:18;10.30;84.30
40153;DHT22;26371;56.992;23.912;2023-04-15T21:02:47;10.50;85.70
40153;DHT22;26371;56.992;23.912;2023-04-15T21:05:15;9.70;90.00
40153;DHT22;26371;56.992;23.912;2023-04-15T21:07:45;10.30;85.50
40153;DHT22;26371;56.992;23.912;2023-04-15T21:10:13;11.70;86.50
40153;DHT22;26371;56.992;23.912;2023-04-15T21:12:42;10.30;94.50
40153;DHT22;26371;56.992;23.912;2023-04-15T21:15:10;10.10;86.10